Time;durP1;ratioP1;P1;durP2;ratioP2;P2;SDS_P1;SDS_P2;PMS_P1;PMS_P2;Temp;Humidity;BMP_temperature;BMP_pressure;BME280_temperature;BME280_humidity;BME280_pressure;Samples;Min_cycle;Max_cycle;Signal;HPM_P1;HPM_P2
2023/11/29 00:00:09;;;;;;;;;;;;;;;-1.37;100.00;99964.13;6216018;23;20273;-82
2023/11/29 00:02:34;;;;;;;;;;;;;;;-1.30;100.00;99957.28;6216374;23;20233;-82
2023/11/29 00:04:59;;;;;;;;;;;;;;;-1.29;100.00;99951.03;6214623;23;20002;-82
2023/11/29 00:07:30;;;;;;;;;;;;;;;-1.30;100.00;99953.84;6222854;23;19912;-82
2023/11/29 00:09:55;;;;;;;;;;;;;;;-1.33;100.00;99940.91;6215940;23;19987;-82
2023/11/29 00:12:20;;;;;;;;;;;;;;;-1.38;100.00;99936.88;6214845;23;19943;-82
2023/11/29 00:14:45;;;;;;;;;;;;;;;-1.33;100.00;99933.00;6215998;23;20391;-82
2023/11/29 00:17:17;;;;;;;;;;;;;;;-1.33;100.00;99917.16;6218372;23;20344;-82
2023/11/29 00:19:43;;;;;;;;;;;;;;;-1.40;100.00;99917.72;6218063;23;20329;-82
2023/11/29 00:22:09;;;;;;;;;;;;;;;-1.41;100.00;99910.75;6219932;23;19919;-82
2023/11/29 00:24:34;;;;;;;;;;;;;;;-1.31;100.00;99916.03;6221459;23;19915;-82
2023/11/29 00:26:59;;;;;;;;;;;;;;;-1.28;100.00;99909.63;6221795;23;20289;-82
2023/11/29 00:29:28;;;;;;;;;;;;;;;-1.28;100.00;99918.38;6237126;23;19916;-82
2023/11/29 00:31:53;;;;;;;;;;;;;;;-1.32;100.00;99911.72;6221236;23;19918;-82
2023/11/29 00:34:18;;;;;;;;;;;;;;;-1.39;100.00;99911.44;6213089;23;20030;-82
2023/11/29 00:37:04;;;;;;;;;;;;;;;-1.32;100.00;99910.91;6219130;23;19934;-83
2023/11/29 00:40:00;;;;;;;;;;;;;;;-1.35;100.00;99897.97;6224220;23;19922;-82
2023/11/29 00:47:52;;;;;;;;;;;;;;;-1.32;100.00;99880.03;6188040;23;19935;-82
2023/11/29 00:50:17;;;;;;;;;;;;;;;-1.28;100.00;99877.94;6188136;23;20411;-82
2023/11/29 00:52:56;;;;;;;;;;;;;;;-1.30;100.00;99880.72;6188805;23;19912;-82
2023/11/29 00:55:52;;;;;;;;;;;;;;;-1.26;100.00;99862.81;6186774;23;19912;-82
2023/11/29 00:58:17;;;;;;;;;;;;;;;-1.26;100.00;99865.44;6185715;23;19912;-82
2023/11/29 01:00:51;;;;;;;;;;;;;;;-1.20;100.00;99850.81;6196150;23;19938;-82
2023/11/29 01:06:16;;;;;;;;;;;;;;;-1.31;100.00;99871.13;6182333;23;19938;-82
2023/11/29 01:11:44;;;;;;;;;;;;;;;-1.02;100.00;99857.00;6219995;23;19939;-81
2023/11/29 01:20:12;;;;;;;;;;;;;;;-1.03;100.00;99859.78;6214955;22;19997;-82
2023/11/29 01:23:11;;;;;;;;;;;;;;;-1.08;100.00;99841.72;6216292;23;19912;-81
2023/11/29 01:25:51;;;;;;;;;;;;;;;-1.04;100.00;99840.47;6216068;23;19919;-81
2023/11/29 01:28:16;;;;;;;;;;;;;;;-1.05;100.00;99844.06;6215736;23;20015;-81
2023/11/29 01:30:51;;;;;;;;;;;;;;;-1.00;100.00;99833.06;6140693;23;19915;-82
2023/11/29 01:36:47;;;;;;;;;;;;;;;-1.00;100.00;99819.84;6216994;23;19982;-82
2023/11/29 01:42:16;;;;;;;;;;;;;;;-0.99;100.00;99816.25;6214988;23;20319;-82
2023/11/29 01:47:23;;;;;;;;;;;;;;;-0.99;100.00;99808.31;6125443;22;1823453;-82
2023/11/29 01:49:48;;;;;;;;;;;;;;;-0.98;100.00;99809.97;6229889;23;20006;-81
2023/11/29 01:52:14;;;;;;;;;;;;;;;-0.94;100.00;99809.53;6225101;23;20343;-81
2023/11/29 01:54:39;;;;;;;;;;;;;;;-0.98;100.00;99809.97;6190889;23;19991;-82
2023/11/29 01:57:05;;;;;;;;;;;;;;;-0.94;100.00;99809.53;6217420;23;19916;-81
2023/11/29 01:59:30;;;;;;;;;;;;;;;-0.93;100.00;99799.81;6218934;23;19920;-82
2023/11/29 02:01:55;;;;;;;;;;;;;;;-0.92;100.00;99789.06;6218763;23;19916;-81
2023/11/29 02:04:23;;;;;;;;;;;;;;;-0.96;100.00;99798.28;6192950;23;19920;-82
2023/11/29 02:06:49;;;;;;;;;;;;;;;-0.93;100.00;99790.06;6189964;23;19919;-82
2023/11/29 02:09:14;;;;;;;;;;;;;;;-0.92;100.00;99777.69;6189875;23;19928;-82
2023/11/29 02:11:58;;;;;;;;;;;;;;;-0.94;100.00;99750.59;6189621;23;20349;-82
2023/11/29 02:14:23;;;;;;;;;;;;;;;-0.97;100.00;99758.81;6215073;23;19943;-81
2023/11/29 02:16:51;;;;;;;;;;;;;;;-0.92;100.00;99759.19;6215561;23;19942;-81
2023/11/29 02:19:16;;;;;;;;;;;;;;;-0.98;100.00;99781.75;6214697;23;20019;-81
2023/11/29 02:21:41;;;;;;;;;;;;;;;-0.92;100.00;99772.41;6215647;23;19920;-81
2023/11/29 02:24:16;;;;;;;;;;;;;;;-0.99;100.00;99784.53;6215531;23;19989;-82
2023/11/29 02:26:41;;;;;;;;;;;;;;;-0.92;100.00;99777.69;6213795;23;20371;-81
2023/11/29 02:29:07;;;;;;;;;;;;;;;-0.89;100.00;99766.84;6215210;23;19912;-82
2023/11/29 02:31:32;;;;;;;;;;;;;;;-0.96;100.00;99768.41;6215602;23;19920;-81
2023/11/29 02:33:58;;;;;;;;;;;;;;;-0.96;100.00;99763.13;6213183;23;20190;-81
2023/11/29 02:36:24;;;;;;;;;;;;;;;-0.94;100.00;99750.59;6214562;23;20244;-80
2023/11/29 02:38:49;;;;;;;;;;;;;;;-0.91;100.00;99747.66;6215128;23;19942;-79
2023/11/29 02:41:14;;;;;;;;;;;;;;;-0.88;100.00;99725.38;6213386;23;19912;-79
2023/11/29 02:43:39;;;;;;;;;;;;;;;-0.86;100.00;99732.16;6215863;23;19958;-80
2023/11/29 02:46:04;;;;;;;;;;;;;;;-0.88;100.00;99731.47;6215315;23;19915;-79
2023/11/29 02:48:30;;;;;;;;;;;;;;;-0.88;100.00;99728.03;6214388;23;20076;-79
2023/11/29 02:50:55;;;;;;;;;;;;;;;-0.84;100.00;99719.63;6213977;23;19939;-80
2023/11/29 02:53:20;;;;;;;;;;;;;;;-0.87;100.00;99722.56;6214685;23;20206;-79
2023/11/29 02:55:45;;;;;;;;;;;;;;;-0.84;100.00;99724.91;6214621;23;20270;-80
2023/11/29 02:58:11;;;;;;;;;;;;;;;-0.77;100.00;99728.63;6213847;23;19916;-80
2023/11/29 03:00:36;;;;;;;;;;;;;;;-0.78;100.00;99723.47;6214554;23;19912;-80
2023/11/29 03:03:01;;;;;;;;;;;;;;;-0.74;100.00;99719.56;6212855;23;19916;-80
2023/11/29 03:05:26;;;;;;;;;;;;;;;-0.73;100.00;99723.03;6214721;23;19941;-80
2023/11/29 03:07:54;;;;;;;;;;;;;;;-0.68;100.00;99734.81;6216702;23;19916;-80
2023/11/29 03:10:19;;;;;;;;;;;;;;;-0.67;100.00;99725.06;6222859;23;19947;-80
2023/11/29 03:12:44;;;;;;;;;;;;;;;-0.77;100.00;99715.41;6216530;23;19912;-79
2023/11/29 03:15:11;;;;;;;;;;;;;;;-0.68;100.00;99710.19;6214869;23;19916;-80
2023/11/29 03:17:36;;;;;;;;;;;;;;;-0.70;100.00;99696.28;6215307;23;20015;-81
2023/11/29 03:20:03;;;;;;;;;;;;;;;-0.69;100.00;99697.94;6214400;23;19960;-81
2023/11/29 03:22:28;;;;;;;;;;;;;;;-0.80;100.00;99694.56;6215351;23;20269;-80
2023/11/29 03:24:53;;;;;;;;;;;;;;;-0.68;100.00;99681.13;6214816;23;20359;-81
2023/11/29 03:27:19;;;;;;;;;;;;;;;-0.61;100.00;99666.31;6214656;23;20325;-82
2023/11/29 03:29:44;;;;;;;;;;;;;;;-0.58;100.00;99663.38;6214759;23;20383;-82
2023/11/29 03:32:09;;;;;;;;;;;;;;;-0.60;100.00;99657.41;6215142;23;19915;-82
2023/11/29 03:34:35;;;;;;;;;;;;;;;-0.54;100.00;99664.72;6215008;23;19935;-82
2023/11/29 03:37:00;;;;;;;;;;;;;;;-0.61;100.00;99666.31;6214633;23;19908;-82
2023/11/29 03:39:25;;;;;;;;;;;;;;;-0.58;100.00;99655.44;6214710;23;19935;-82
2023/11/29 03:41:50;;;;;;;;;;;;;;;-0.59;100.00;99658.22;6214069;23;19912;-80
2023/11/29 03:44:16;;;;;;;;;;;;;;;-0.55;100.00;99665.72;6214609;23;19919;-81
2023/11/29 03:46:41;;;;;;;;;;;;;;;-0.55;100.00;99657.78;6215643;23;20233;-80
2023/11/29 03:49:06;;;;;;;;;;;;;;;-0.52;100.00;99654.00;6214850;23;19958;-81
2023/11/29 03:51:32;;;;;;;;;;;;;;;-0.60;100.00;99652.13;6215133;23;19919;-80
2023/11/29 03:53:58;;;;;;;;;;;;;;;-0.60;100.00;99644.19;6215585;23;19966;-80
2023/11/29 03:56:23;;;;;;;;;;;;;;;-0.65;100.00;99644.66;6214586;23;19912;-81
2023/11/29 03:58:48;;;;;;;;;;;;;;;-0.64;100.00;99637.53;6214348;23;19990;-80
2023/11/29 04:01:13;;;;;;;;;;;;;;;-0.61;100.00;99630.13;6215464;23;19919;-81
2023/11/29 04:03:38;;;;;;;;;;;;;;;-0.65;100.00;99623.50;6213560;23;19916;-81
2023/11/29 04:06:06;;;;;;;;;;;;;;;-0.65;100.00;99625.31;6214746;23;20374;-81
2023/11/29 04:08:35;;;;;;;;;;;;;;;-0.67;100.00;99614.06;6216484;23;20237;-80
2023/11/29 04:11:00;;;;;;;;;;;;;;;-0.77;100.00;99606.22;6215074;23;19923;-80
2023/11/29 04:13:26;;;;;;;;;;;;;;;-0.73;100.00;99604.13;6216901;23;19912;-79
2023/11/29 04:15:51;;;;;;;;;;;;;;;-0.72;100.00;99611.06;6216779;23;19916;-80
2023/11/29 04:18:16;;;;;;;;;;;;;;;-0.68;100.00;99607.13;6215728;23;19916;-80
2023/11/29 04:20:42;;;;;;;;;;;;;;;-0.69;100.00;99594.88;6220083;23;19994;-80
2023/11/29 04:23:07;;;;;;;;;;;;;;;-0.69;100.00;99584.31;6224172;23;19920;-80
2023/11/29 04:25:32;;;;;;;;;;;;;;;-0.70;100.00;99595.88;6226418;23;19927;-80
2023/11/29 04:30:50;;;;;;;;;;;;;;;-0.61;100.00;99581.72;6199282;22;19927;-80
2023/11/29 04:33:15;;;;;;;;;;;;;;;-0.67;100.00;99585.00;6201558;23;19916;-79
2023/11/29 04:35:56;;;;;;;;;;;;;;;-0.60;100.00;99586.03;6191123;23;19959;-79
2023/11/29 04:38:45;;;;;;;;;;;;;;;-0.68;100.00;99592.09;6186390;23;19919;-79
2023/11/29 04:41:13;;;;;;;;;;;;;;;-0.60;100.00;99575.47;6184871;23;20090;-79
2023/11/29 04:43:48;;;;;;;;;;;;;;;-0.58;100.00;99570.00;6184741;23;19912;-79
2023/11/29 04:46:13;;;;;;;;;;;;;;;-0.54;100.00;99577.50;6183954;23;19939;-79
2023/11/29 04:48:48;;;;;;;;;;;;;;;-0.57;100.00;99566.38;6184318;23;19912;-79
2023/11/29 04:51:13;;;;;;;;;;;;;;;-0.59;100.00;99539.28;6185265;23;20322;-79
2023/11/29 04:53:47;;;;;;;;;;;;;;;-0.70;100.00;99545.66;6185669;23;19912;-80
2023/11/29 04:56:19;;;;;;;;;;;;;;;-0.70;100.00;99548.28;6202406;23;19912;-80
2023/11/29 04:58:50;;;;;;;;;;;;;;;-0.73;100.00;99562.66;6186566;23;19996;-80
2023/11/29 05:01:16;;;;;;;;;;;;;;;-0.74;100.00;99555.72;6183590;23;19916;-80
2023/11/29 05:03:42;;;;;;;;;;;;;;;-0.70;100.00;99548.28;6185817;23;19920;-83
2023/11/29 05:06:09;;;;;;;;;;;;;;;-0.68;100.00;99547.19;6186636;23;19918;-81
2023/11/29 05:08:35;;;;;;;;;;;;;;;-0.67;100.00;99524.19;6186148;23;19912;-79
2023/11/29 05:11:00;;;;;;;;;;;;;;;-0.59;100.00;99513.69;6185403;23;19916;-78
2023/11/29 05:13:26;;;;;;;;;;;;;;;-0.63;100.00;99530.84;6186876;23;19963;-81
2023/11/29 05:15:51;;;;;;;;;;;;;;;-0.68;100.00;99528.66;6186234;23;19913;-82
2023/11/29 05:18:16;;;;;;;;;;;;;;;-0.52;100.00;99522.63;6188205;23;19959;-82
2023/11/29 05:20:42;;;;;;;;;;;;;;;-0.55;100.00;99522.13;6192439;23;19923;-81
2023/11/29 05:23:19;;;;;;;;;;;;;;;-0.52;100.00;99516.53;6199341;22;19925;-80
2023/11/29 05:26:09;;;;;;;;;;;;;;;-0.50;100.00;99531.22;6201966;23;19923;-81
2023/11/29 05:28:47;;;;;;;;;;;;;;;-0.52;100.00;99522.63;6187395;23;19940;-80
2023/11/29 05:31:13;;;;;;;;;;;;;;;-0.55;100.00;99533.53;6185486;23;20333;-80
2023/11/29 05:33:48;;;;;;;;;;;;;;;-0.61;100.00;99532.34;6185895;23;19922;-79
2023/11/29 05:36:14;;;;;;;;;;;;;;;-0.53;100.00;99514.88;6184421;22;19942;-79
2023/11/29 05:38:39;;;;;;;;;;;;;;;-0.60;100.00;99504.09;6186355;23;20003;-80
2023/11/29 05:41:05;;;;;;;;;;;;;;;-0.67;100.00;99508.34;6186303;23;19912;-80
2023/11/29 05:43:30;;;;;;;;;;;;;;;-0.65;100.00;99519.59;6187226;23;19920;-79
2023/11/29 05:45:55;;;;;;;;;;;;;;;-0.72;100.00;99511.47;6191093;23;19923;-79
2023/11/29 05:48:20;;;;;;;;;;;;;;;-0.79;100.00;99510.41;6188506;23;20325;-79
2023/11/29 05:50:46;;;;;;;;;;;;;;;-0.67;100.00;99498.63;6186511;23;19912;-78
2023/11/29 05:53:11;;;;;;;;;;;;;;;-0.65;100.00;99501.09;6185907;23;19912;-79
2023/11/29 05:55:36;;;;;;;;;;;;;;;-0.63;100.00;99499.97;6199302;23;19967;-79
2023/11/29 05:58:03;;;;;;;;;;;;;;;-0.64;100.00;99498.31;6185512;23;19912;-79
2023/11/29 06:00:28;;;;;;;;;;;;;;;-0.61;100.00;99497.16;6186803;23;19912;-79
2023/11/29 06:02:54;;;;;;;;;;;;;;;-0.61;100.00;99497.16;6185556;23;19916;-78
2023/11/29 06:05:19;;;;;;;;;;;;;;;-0.68;100.00;99501.41;6184502;23;19991;-79
2023/11/29 06:07:46;;;;;;;;;;;;;;;-0.61;100.00;99497.16;6185273;23;19912;-79
2023/11/29 06:10:14;;;;;;;;;;;;;;;-0.58;100.00;99496.84;6183692;23;19912;-79
2023/11/29 06:12:40;;;;;;;;;;;;;;;-0.46;100.00;99506.13;6185149;23;19942;-79
2023/11/29 06:15:05;;;;;;;;;;;;;;;-0.45;100.00;99504.34;6185444;23;19992;-79
2023/11/29 06:17:35;;;;;;;;;;;;;;;-0.48;100.00;99502.00;6184295;23;20061;-79
2023/11/29 06:20:00;;;;;;;;;;;;;;;-0.52;100.00;99492.72;6184984;23;19916;-79
2023/11/29 06:22:28;;;;;;;;;;;;;;;-0.45;100.00;99504.34;6185635;23;19947;-79
2023/11/29 06:24:53;;;;;;;;;;;;;;;-0.49;100.00;99495.88;6184668;23;19913;-79
2023/11/29 06:27:19;;;;;;;;;;;;;;;-0.55;100.00;99504.47;6186246;23;19947;-79
2023/11/29 06:29:44;;;;;;;;;;;;;;;-0.50;100.00;99499.50;6187650;23;19912;-79
2023/11/29 06:32:09;;;;;;;;;;;;;;;-0.38;100.00;99507.19;6184086;23;19962;-79
2023/11/29 06:34:34;;;;;;;;;;;;;;;-0.36;100.00;99502.56;6186291;23;19912;-79
2023/11/29 06:36:59;;;;;;;;;;;;;;;-0.38;100.00;99502.69;6186646;23;19920;-79
2023/11/29 06:39:25;;;;;;;;;;;;;;;-0.34;100.00;99498.75;6184907;23;19913;-79
2023/11/29 06:41:50;;;;;;;;;;;;;;;-0.40;100.00;99491.44;6185802;23;19919;-79
2023/11/29 06:44:15;;;;;;;;;;;;;;;-0.33;100.00;99503.06;6186320;23;19939;-79
2023/11/29 06:46:40;;;;;;;;;;;;;;;-0.25;100.00;99501.41;6184489;23;19913;-79
2023/11/29 06:49:06;;;;;;;;;;;;;;;-0.33;100.00;99499.56;6184865;23;19920;-79
2023/11/29 06:51:32;;;;;;;;;;;;;;;-0.26;100.00;99507.69;6186442;23;19915;-79
2023/11/29 06:53:57;;;;;;;;;;;;;;;-0.32;100.00;99515.28;6184357;23;19942;-78
2023/11/29 06:56:22;;;;;;;;;;;;;;;-0.40;100.00;99507.31;6185364;23;19978;-79
2023/11/29 06:58:48;;;;;;;;;;;;;;;-0.30;100.00;99509.84;6186400;23;20325;-78
2023/11/29 07:01:13;;;;;;;;;;;;;;;-0.34;100.00;99506.69;6184012;23;20325;-78
2023/11/29 07:03:39;;;;;;;;;;;;;;;-0.26;100.00;99505.88;6185156;23;19919;-79
2023/11/29 07:06:04;;;;;;;;;;;;;;;-0.31;100.00;99514.31;6186797;23;19947;-79
2023/11/29 07:08:31;;;;;;;;;;;;;;;-0.37;100.00;99519.41;6186508;23;19912;-79
2023/11/29 07:10:58;;;;;;;;;;;;;;;-0.37;100.00;99517.59;6185248;23;19912;-79
2023/11/29 07:13:23;;;;;;;;;;;;;;;-0.40;100.00;99522.38;6186701;23;19940;-79
2023/11/29 07:15:51;;;;;;;;;;;;;;;-0.35;100.00;99530.63;6191212;23;20298;-78
2023/11/29 07:18:20;;;;;;;;;;;;;;;-0.33;100.00;99539.25;6193388;23;19955;-78
2023/11/29 07:20:45;;;;;;;;;;;;;;;-0.40;100.00;99541.69;6184572;23;20322;-78
2023/11/29 07:23:10;;;;;;;;;;;;;;;-0.38;100.00;99549.47;6184110;23;20049;-78
2023/11/29 07:25:37;;;;;;;;;;;;;;;-0.38;100.00;99550.28;6184961;23;19916;-79
2023/11/29 07:28:02;;;;;;;;;;;;;;;-0.31;100.00;99550.50;6184631;23;20341;-79
2023/11/29 07:30:27;;;;;;;;;;;;;;;-0.29;100.00;99553.81;6184941;23;19919;-79
2023/11/29 07:32:53;;;;;;;;;;;;;;;-0.33;100.00;99555.09;6184730;23;19994;-79
2023/11/29 07:35:18;;;;;;;;;;;;;;;-0.35;100.00;99565.00;6185194;23;20321;-79
2023/11/29 07:37:44;;;;;;;;;;;;;;;-0.37;100.00;99561.72;6185105;23;20383;-79
2023/11/29 07:40:10;;;;;;;;;;;;;;;-0.38;100.00;99560.88;6183858;23;19918;-79
2023/11/29 07:42:35;;;;;;;;;;;;;;;-0.38;100.00;99574.09;6184806;23;19991;-79
2023/11/29 07:45:03;;;;;;;;;;;;;;;-0.32;100.00;99575.28;6185007;23;19923;-79
2023/11/29 07:47:29;;;;;;;;;;;;;;;-0.27;100.00;99578.28;6185684;23;20292;-79
2023/11/29 07:49:54;;;;;;;;;;;;;;;-0.26;100.00;99584.38;6185397;23;19939;-79
2023/11/29 07:52:20;;;;;;;;;;;;;;;-0.26;100.00;99585.22;6185694;23;19920;-79
2023/11/29 07:54:45;;;;;;;;;;;;;;;-0.28;100.00;99592.50;6185990;23;19979;-79
2023/11/29 07:57:12;;;;;;;;;;;;;;;-0.29;100.00;99595.31;6186321;23;19916;-79
2023/11/29 07:59:37;;;;;;;;;;;;;;;-0.31;100.00;99608.66;6187556;23;19940;-78
2023/11/29 08:02:03;;;;;;;;;;;;;;;-0.32;100.00;99612.28;6190659;23;19985;-79
2023/11/29 08:04:29;;;;;;;;;;;;;;;-0.31;100.00;99619.25;6195222;23;19991;-79
2023/11/29 08:06:54;;;;;;;;;;;;;;;-0.24;100.00;99622.09;6203248;23;19925;-79
2023/11/29 08:09:20;;;;;;;;;;;;;;;-0.18;100.00;99630.22;6186338;23;20412;-79
2023/11/29 08:11:45;;;;;;;;;;;;;;;-0.10;100.00;99631.25;6185715;23;19920;-79
2023/11/29 08:14:16;;;;;;;;;;;;;;;-0.08;100.00;99639.88;6184470;22;20325;-79
2023/11/29 08:16:51;;;;;;;;;;;;;;;-0.03;100.00;99637.59;6184242;23;19917;-79
2023/11/29 08:19:16;;;;;;;;;;;;;;;-0.02;100.00;99636.59;6185071;23;19940;-79
2023/11/29 08:21:53;;;;;;;;;;;;;;;-0.03;100.00;99648.16;6186493;23;19919;-79
2023/11/29 08:24:25;;;;;;;;;;;;;;;-0.03;100.00;99654.28;6188274;23;19995;-79
2023/11/29 08:26:53;;;;;;;;;;;;;;;-0.02;100.00;99655.94;6187578;23;19912;-79
2023/11/29 08:29:19;;;;;;;;;;;;;;;-0.02;100.00;99661.22;6188671;23;19916;-79
2023/11/29 08:31:50;;;;;;;;;;;;;;;0.02;100.00;99664.38;6188042;23;20230;-79
2023/11/29 08:34:49;;;;;;;;;;;;;;;0.07;100.00;99667.41;6189226;23;19916;-79
2023/11/29 08:37:23;;;;;;;;;;;;;;;0.17;100.00;99671.75;6200348;23;19946;-78
2023/11/29 08:42:54;;;;;;;;;;;;;;;0.40;100.00;99679.94;6187045;23;19919;-79
2023/11/29 08:45:22;;;;;;;;;;;;;;;0.47;100.00;99694.19;6185479;23;19913;-79
2023/11/29 08:47:53;;;;;;;;;;;;;;;0.57;100.00;99688.75;6186394;23;20004;-79
2023/11/29 08:50:25;;;;;;;;;;;;;;;0.63;100.00;99688.13;6187470;23;19932;-79
2023/11/29 08:52:53;;;;;;;;;;;;;;;0.68;100.00;99699.09;6185086;23;19999;-79
2023/11/29 08:55:19;;;;;;;;;;;;;;;0.74;100.00;99697.59;6185963;23;19913;-78
2023/11/29 08:57:51;;;;;;;;;;;;;;;0.83;100.00;99701.09;6190074;23;19939;-80
2023/11/29 09:00:20;;;;;;;;;;;;;;;0.83;100.00;99701.91;6191465;23;19912;-80
2023/11/29 09:02:55;;;;;;;;;;;;;;;0.78;100.00;99711.34;6188696;23;19919;-80
2023/11/29 09:05:22;;;;;;;;;;;;;;;0.76;100.00;99719.47;6188296;23;19987;-79
2023/11/29 09:07:48;;;;;;;;;;;;;;;0.78;100.00;99721.94;6186312;23;19912;-79
2023/11/29 09:10:13;;;;;;;;;;;;;;;0.87;100.00;99728.94;6186152;23;19916;-79
2023/11/29 09:12:38;;;;;;;;;;;;;;;0.96;100.00;99733.25;6187582;23;19916;-79
2023/11/29 09:15:05;;;;;;;;;;;;;;;1.06;100.00;99739.22;6185139;23;20337;-79
2023/11/29 09:17:31;;;;;;;;;;;;;;;1.06;100.00;99743.72;6186654;23;20032;-79
2023/11/29 09:19:58;;;;;;;;;;;;;;;1.02;100.00;99743.22;6187451;23;19939;-79
2023/11/29 09:22:23;;;;;;;;;;;;;;;0.92;100.00;99750.47;6187601;23;19912;-79
2023/11/29 09:24:48;;;;;;;;;;;;;;;0.96;100.00;99748.34;6189996;23;19923;-79
2023/11/29 09:27:13;;;;;;;;;;;;;;;0.97;100.00;99758.75;6194087;23;19923;-79
2023/11/29 09:30:12;;;;;;;;;;;;;;;0.86;100.00;99759.06;6217255;23;19920;-79
2023/11/29 09:32:50;;;;;;;;;;;;;;;0.84;100.00;99763.69;6224121;23;19920;-80
2023/11/29 09:35:15;;;;;;;;;;;;;;;0.84;100.00;99771.66;6217085;23;19912;-80
2023/11/29 09:37:50;;;;;;;;;;;;;;;0.86;100.00;99772.31;6216384;23;20356;-80
2023/11/29 09:40:16;;;;;;;;;;;;;;;0.94;100.00;99767.03;6214875;23;19942;-80
2023/11/29 09:42:53;;;;;;;;;;;;;;;0.90;100.00;99768.34;6191217;23;19912;-80
2023/11/29 09:45:22;;;;;;;;;;;;;;;0.85;100.00;99779.41;6216579;23;19916;-80
2023/11/29 09:47:50;;;;;;;;;;;;;;;0.80;100.00;99773.75;6216105;23;19918;-81
2023/11/29 09:50:17;;;;;;;;;;;;;;;0.76;100.00;99777.75;6215957;23;19916;-80
2023/11/29 09:52:48;;;;;;;;;;;;;;;0.72;100.00;99777.22;6213195;23;19920;-80
2023/11/29 09:55:14;;;;;;;;;;;;;;;0.71;100.00;99774.72;6194353;23;19916;-80
2023/11/29 09:57:46;;;;;;;;;;;;;;;0.69;100.00;99772.25;6226165;23;19923;-80
2023/11/29 10:00:17;;;;;;;;;;;;;;;0.69;100.00;99776.72;6215833;23;19912;-80
2023/11/29 10:03:01;;;;;;;;;;;;;;;0.71;100.00;99778.19;6215757;23;19915;-80
2023/11/29 10:05:26;;;;;;;;;;;;;;;0.77;100.00;99771.47;6216347;23;20218;-80
2023/11/29 10:07:51;;;;;;;;;;;;;;;0.77;100.00;99781.22;6215984;23;19966;-81
2023/11/29 10:10:17;;;;;;;;;;;;;;;0.82;100.00;99786.88;6215120;23;20372;-80
2023/11/29 10:12:52;;;;;;;;;;;;;;;0.97;100.00;99792.41;6217226;23;19958;-80
2023/11/29 10:15:24;;;;;;;;;;;;;;;0.96;100.00;99794.19;6215755;23;19916;-81
2023/11/29 10:17:50;;;;;;;;;;;;;;;1.06;100.00;99802.03;6215511;23;19919;-81
2023/11/29 10:20:28;;;;;;;;;;;;;;;1.16;100.00;99799.22;6215955;23;20240;-81
2023/11/29 10:22:53;;;;;;;;;;;;;;;1.29;100.00;99801.44;6214786;23;19920;-80
2023/11/29 10:25:32;;;;;;;;;;;;;;;1.50;100.00;99807.06;6162372;23;19919;-81
2023/11/29 10:28:13;;;;;;;;;;;;;;;1.48;100.00;99810.91;6216009;23;19916;-81
2023/11/29 10:30:51;;;;;;;;;;;;;;;1.43;100.00;99814.03;6216578;23;20009;-81
2023/11/29 10:33:50;;;;;;;;;;;;;;;1.58;100.00;99810.75;6189006;23;19912;-81
2023/11/29 10:36:16;;;;;;;;;;;;;;;1.66;100.00;99808.13;6215623;23;19912;-81
2023/11/29 10:38:48;;;;;;;;;;;;;;;1.62;100.00;99812.91;6215150;23;19918;-81
2023/11/29 10:41:13;;;;;;;;;;;;;;;1.73;100.00;99808.28;6215887;23;19995;-81
2023/11/29 10:43:54;;;;;;;;;;;;;;;1.77;100.00;99805.13;6189616;23;19939;-81
2023/11/29 10:46:25;;;;;;;;;;;;;;;1.88;100.00;99814.59;6213423;23;19919;-81
2023/11/29 10:48:55;;;;;;;;;;;;;;;1.88;99.39;99813.75;6191683;23;20336;-81
2023/11/29 10:51:20;;;;;;;;;;;;;;;1.88;98.68;99817.25;6189334;23;19912;-82
2023/11/29 10:53:47;;;;;;;;;;;;;;;1.96;96.31;99814.56;6189057;23;19912;-81
2023/11/29 10:56:12;;;;;;;;;;;;;;;1.95;97.22;99818.22;6188992;23;19912;-82
2023/11/29 10:58:48;;;;;;;;;;;;;;;2.10;95.23;99825.53;6216722;23;19923;-81
2023/11/29 11:01:13;;;;;;;;;;;;;;;2.11;94.50;99824.53;6216316;23;20316;-82
2023/11/29 11:03:42;;;;;;;;;;;;;;;2.00;93.68;99824.84;6217680;23;19912;-81
2023/11/29 11:06:22;;;;;;;;;;;;;;;2.00;94.28;99832.81;6216627;23;19916;-81
2023/11/29 11:08:48;;;;;;;;;;;;;;;2.06;93.09;99835.63;6217236;23;19998;-82
2023/11/29 11:11:32;;;;;;;;;;;;;;;2.07;91.15;99831.19;6217930;23;20458;-82
2023/11/29 11:13:57;;;;;;;;;;;;;;;2.07;91.66;99824.03;6216630;23;19946;-82
2023/11/29 11:16:23;;;;;;;;;;;;;;;2.13;91.42;99833.13;6218953;23;19920;-82
2023/11/29 11:18:49;;;;;;;;;;;;;;;2.11;91.57;99827.19;6236341;23;19900;-81
2023/11/29 11:21:15;;;;;;;;;;;;;;;2.36;93.29;99829.81;6193207;23;20224;-81
2023/11/29 11:23:40;;;;;;;;;;;;;;;2.27;90.18;99829.84;6215888;23;19916;-82
2023/11/29 11:26:09;;;;;;;;;;;;;;;2.12;91.01;99829.66;6216640;23;19935;-82
2023/11/29 11:28:37;;;;;;;;;;;;;;;2.18;90.93;99819.38;6216017;23;20240;-82
2023/11/29 11:33:49;;;;;;;;;;;;;;;2.08;91.03;99836.31;6188793;23;19927;-83
2023/11/29 11:36:24;;;;;;;;;;;;;;;2.15;87.76;99833.81;6186160;23;19920;-81
2023/11/29 11:38:52;;;;;;;;;;;;;;;2.25;85.51;99825.66;6188654;23;19913;-83
2023/11/29 11:41:17;;;;;;;;;;;;;;;2.60;87.82;99831.56;6189636;23;19919;-83
2023/11/29 11:44:04;;;;;;;;;;;;;;;2.81;88.32;99828.38;6190426;23;19920;-83
2023/11/29 11:46:29;;;;;;;;;;;;;;;3.24;84.55;99821.84;6163120;23;19916;-83
2023/11/29 11:54:14;;;;;;;;;;;;;;;5.57;72.50;99828.22;6200611;23;19919;-82
2023/11/29 11:57:01;;;;;;;;;;;;;;;5.15;71.32;99843.13;6215488;23;19912;-82
2023/11/29 11:59:26;;;;;;;;;;;;;;;5.41;70.14;99831.94;6215260;23;19923;-82
2023/11/29 12:01:51;;;;;;;;;;;;;;;5.44;68.22;99833.41;6213853;23;19915;-82
2023/11/29 12:04:17;;;;;;;;;;;;;;;5.16;68.21;99831.44;6186519;23;19912;-83
2023/11/29 12:06:48;;;;;;;;;;;;;;;5.24;69.08;99833.16;6217979;23;19913;-82
2023/11/29 12:09:13;;;;;;;;;;;;;;;5.54;68.75;99839.25;6188924;23;19919;-82
2023/11/29 12:11:41;;;;;;;;;;;;;;;5.91;66.85;99844.56;6189417;23;20262;-82
2023/11/29 12:14:11;;;;;;;;;;;;;;;5.80;68.32;99843.25;6213456;23;20271;-82
2023/11/29 12:16:36;;;;;;;;;;;;;;;5.90;67.72;99842.91;6215497;23;19936;-82
2023/11/29 12:19:01;;;;;;;;;;;;;;;5.91;66.71;99841.91;6222792;23;19916;-82
2023/11/29 12:21:28;;;;;;;;;;;;;;;5.87;69.45;99837.97;6217167;23;19919;-82
2023/11/29 12:23:54;;;;;;;;;;;;;;;6.07;67.23;99832.81;6214911;23;19990;-82
2023/11/29 12:26:19;;;;;;;;;;;;;;;6.10;66.10;99832.44;6189454;23;19943;-81
2023/11/29 12:28:44;;;;;;;;;;;;;;;6.58;66.25;99828.25;6215244;23;19920;-81
2023/11/29 12:31:12;;;;;;;;;;;;;;;6.57;63.62;99843.47;6214096;23;19916;-82
2023/11/29 12:33:37;;;;;;;;;;;;;;;6.24;66.35;99837.88;6216568;23;19919;-82
2023/11/29 12:36:03;;;;;;;;;;;;;;;6.00;65.91;99847.97;6215417;23;19915;-81
2023/11/29 12:38:32;;;;;;;;;;;;;;;5.12;69.27;99846.16;6224206;23;20221;-83
2023/11/29 12:40:58;;;;;;;;;;;;;;;4.46;72.46;99839.75;6193310;23;19991;-82
2023/11/29 12:43:23;;;;;;;;;;;;;;;4.65;70.52;99837.56;6215053;23;19935;-82
2023/11/29 12:45:48;;;;;;;;;;;;;;;4.64;71.04;99839.38;6217313;23;19922;-81
2023/11/29 12:48:13;;;;;;;;;;;;;;;4.65;71.41;99843.69;6224211;23;20228;-81
2023/11/29 12:50:39;;;;;;;;;;;;;;;4.31;72.91;99837.06;6190435;23;19935;-81
2023/11/29 12:53:05;;;;;;;;;;;;;;;4.08;73.53;99834.44;6213846;23;19911;-81
2023/11/29 12:55:30;;;;;;;;;;;;;;;4.13;73.88;99841.88;6215041;23;19939;-80
2023/11/29 12:57:55;;;;;;;;;;;;;;;3.92;74.95;99838.88;6214865;23;20352;-81
2023/11/29 13:00:20;;;;;;;;;;;;;;;3.74;75.87;99844.50;6187263;23;20355;-82
2023/11/29 13:02:46;;;;;;;;;;;;;;;3.70;76.71;99853.88;6188974;23;19935;-82
2023/11/29 13:05:12;;;;;;;;;;;;;;;3.34;76.22;99852.56;6213814;23;19995;-81
2023/11/29 13:07:37;;;;;;;;;;;;;;;3.27;74.90;99842.78;6214816;23;19946;-82
2023/11/29 13:10:02;;;;;;;;;;;;;;;3.10;76.77;99842.88;6215519;23;19942;-82
2023/11/29 13:12:28;;;;;;;;;;;;;;;3.02;76.60;99850.88;6214657;23;19990;-81
2023/11/29 13:14:53;;;;;;;;;;;;;;;2.84;76.87;99854.59;6216700;23;20320;-82
2023/11/29 13:17:20;;;;;;;;;;;;;;;3.02;77.73;99849.06;6219822;23;20247;-81
2023/11/29 13:19:46;;;;;;;;;;;;;;;2.92;77.15;99844.94;6222044;23;19942;-82
2023/11/29 13:22:12;;;;;;;;;;;;;;;2.99;76.88;99851.25;6187257;23;19916;-82
2023/11/29 13:24:37;;;;;;;;;;;;;;;2.82;79.38;99847.78;6215364;23;20364;-82
2023/11/29 13:27:05;;;;;;;;;;;;;;;2.62;78.90;99845.53;6215566;23;20280;-81